Alpine Forest, California
Current Conditions -  °F | °C
As of 7:55 PM on Wednesday 28 Jan 2015 (Local Time) from KTSP Reporting Station
Broken Clouds Broken Clouds  
Wind Chill: 45°   Ceiling: 10000
Heat Index: 48°   Visibility: 10mi
Dew Point: 41°   Wind: 8mph
Humidity: 76%   Direction: 100°E
Pressure: 30.22"   Gusts: NA
Location:  35.1338°N, 118.552°W
Report Text: KTSP 290355Z AUTO 10007KT 10SM BKN100 BKN120 09/05 A3022 RMK AO2
Loading
Personal Weather Stations






























Interactive Weather Map New forecast layout! Learn more

10-Day Weather Forecast

Advertisements
Track Severe Weather on mobile